Time;durP1;ratioP1;P1;durP2;ratioP2;P2;SDS_P1;SDS_P2;PMS_P1;PMS_P2;Temp;Humidity;BMP_temperature;BMP_pressure;BME280_temperature;BME280_humidity;BME280_pressure;Samples;Min_cycle;Max_cycle;Signal;HPM_P1;HPM_P2
2021/12/09 00:01:49;;;;;;;13.88;7.85;;;1.10;99.90;;;;;;4889974;29;20072;-65
2021/12/09 00:04:22;;;;;;;10.90;7.15;;;1.10;99.90;;;;;;4913828;29;20440;-67
2021/12/09 00:06:48;;;;;;;13.82;7.38;;;1.10;99.90;;;;;;4895135;29;20553;-66
2021/12/09 00:09:17;;;;;;;16.30;7.57;;;1.20;99.90;;;;;;4881313;29;20157;-66
2021/12/09 00:11:45;;;;;;;12.05;7.85;;;1.20;99.90;;;;;;4897665;29;20049;-66
2021/12/09 00:14:16;;;;;;;10.10;7.30;;;1.10;99.90;;;;;;4897644;29;20054;-66
2021/12/09 00:16:41;;;;;;;12.57;6.93;;;1.10;99.90;;;;;;4880909;29;20120;-66
2021/12/09 00:19:07;;;;;;;15.68;7.45;;;1.10;99.90;;;;;;4903000;29;20064;-66
2021/12/09 00:21:33;;;;;;;12.50;7.65;;;1.10;99.90;;;;;;4900311;29;20144;-66
2021/12/09 00:23:59;;;;;;;14.38;7.60;;;1.10;99.90;;;;;;4920682;29;20099;-66
2021/12/09 00:26:25;;;;;;;16.00;7.60;;;1.10;99.90;;;;;;4919912;29;20056;-66
2021/12/09 00:28:50;;;;;;;12.07;6.80;;;1.10;99.90;;;;;;4903256;29;20127;-66
2021/12/09 00:31:17;;;;;;;14.68;7.50;;;1.00;99.90;;;;;;4910197;29;20049;-66
2021/12/09 00:33:45;;;;;;;12.88;6.97;;;1.00;99.90;;;;;;4875163;29;20092;-67
2021/12/09 00:36:12;;;;;;;12.52;6.90;;;1.00;99.90;;;;;;4890517;29;20056;-66
2021/12/09 00:38:40;;;;;;;13.35;7.50;;;1.00;99.90;;;;;;4902052;29;20072;-66
2021/12/09 00:41:12;;;;;;;12.63;6.97;;;1.00;99.90;;;;;;4902045;29;20044;-66
2021/12/09 00:43:39;;;;;;;13.02;7.78;;;1.00;99.90;;;;;;4919202;29;20056;-67
2021/12/09 00:46:06;;;;;;;11.77;7.20;;;1.00;99.90;;;;;;4893878;29;20063;-67
2021/12/09 00:48:32;;;;;;;13.52;7.68;;;0.90;99.90;;;;;;4895513;29;20497;-66
2021/12/09 00:50:59;;;;;;;15.18;7.90;;;1.00;99.90;;;;;;4902416;29;20060;-65
2021/12/09 00:53:25;;;;;;;15.13;7.82;;;1.00;99.90;;;;;;4919330;29;20079;-65
2021/12/09 00:55:51;;;;;;;16.48;8.07;;;1.00;99.90;;;;;;4919110;29;20067;-66
2021/12/09 00:58:17;;;;;;;12.65;7.20;;;1.00;99.90;;;;;;4902334;29;20052;-66
2021/12/09 01:00:43;;;;;;;13.27;7.30;;;0.90;99.90;;;;;;4913983;29;20111;-65
2021/12/09 01:03:09;;;;;;;14.45;7.25;;;0.90;99.90;;;;;;4888779;29;20056;-67
2021/12/09 01:05:35;;;;;;;13.05;7.50;;;0.90;99.90;;;;;;4918468;29;20459;-67
2021/12/09 01:08:01;;;;;;;13.80;7.10;;;0.90;99.90;;;;;;4896489;29;20063;-66
2021/12/09 01:10:28;;;;;;;13.60;7.28;;;0.80;99.90;;;;;;4895604;29;20056;-66
2021/12/09 01:12:54;;;;;;;10.77;7.68;;;0.80;99.90;;;;;;4902137;29;20051;-67
2021/12/09 01:15:21;;;;;;;18.77;8.10;;;0.80;99.90;;;;;;4918440;29;20095;-66
2021/12/09 01:17:48;;;;;;;12.63;7.25;;;0.80;99.90;;;;;;4918642;29;20051;-65
2021/12/09 01:20:17;;;;;;;13.63;8.15;;;0.80;99.90;;;;;;4918777;29;20402;-66
2021/12/09 01:22:44;;;;;;;14.95;7.60;;;0.80;99.90;;;;;;4901993;29;20111;-66
2021/12/09 01:25:12;;;;;;;14.07;7.80;;;0.70;99.90;;;;;;4899882;29;20048;-66
2021/12/09 01:27:41;;;;;;;17.75;8.18;;;0.70;99.90;;;;;;4917553;29;20056;-67
2021/12/09 01:30:12;;;;;;;15.98;8.65;;;0.70;99.90;;;;;;4917927;29;20505;-65
2021/12/09 01:32:42;;;;;;;11.13;7.38;;;0.70;99.90;;;;;;4918288;29;20048;-65
2021/12/09 01:35:08;;;;;;;13.73;8.07;;;0.80;99.90;;;;;;4918665;29;20350;-66
2021/12/09 01:37:35;;;;;;;14.45;8.65;;;0.60;99.90;;;;;;4917222;29;20393;-66
2021/12/09 01:40:03;;;;;;;21.52;8.68;;;0.70;99.90;;;;;;4904951;29;20128;-65
2021/12/09 01:42:28;;;;;;;13.18;7.30;;;0.70;99.90;;;;;;4900610;29;20060;-66
2021/12/09 01:44:54;;;;;;;15.00;8.27;;;0.80;99.90;;;;;;4900906;29;20173;-65
2021/12/09 01:47:19;;;;;;;16.35;8.18;;;0.80;99.90;;;;;;4913110;29;20047;-67
2021/12/09 01:49:45;;;;;;;17.50;8.20;;;0.80;99.90;;;;;;4900838;29;20058;-66
2021/12/09 01:52:10;;;;;;;13.77;8.25;;;0.80;99.90;;;;;;4918135;29;20060;-66
2021/12/09 01:54:36;;;;;;;14.65;8.88;;;0.70;99.90;;;;;;4874141;29;20304;-65
2021/12/09 01:57:02;;;;;;;14.10;8.73;;;0.80;99.90;;;;;;4913703;29;20052;-66
2021/12/09 01:59:27;;;;;;;16.60;8.77;;;0.70;99.90;;;;;;4917694;29;20457;-65
2021/12/09 02:01:53;;;;;;;14.77;8.63;;;0.70;99.90;;;;;;4905156;29;20132;-65
2021/12/09 02:04:19;;;;;;;12.90;7.53;;;0.70;99.90;;;;;;4897404;29;20056;-66
2021/12/09 02:06:45;;;;;;;14.38;8.63;;;0.70;99.90;;;;;;4918318;29;20048;-65
2021/12/09 02:09:13;;;;;;;16.25;8.80;;;0.70;99.90;;;;;;4918489;29;20052;-66
2021/12/09 02:11:40;;;;;;;18.35;8.82;;;0.70;99.90;;;;;;4918119;29;20056;-65
2021/12/09 02:14:06;;;;;;;12.98;8.35;;;0.60;99.90;;;;;;4914865;29;20102;-66
2021/12/09 02:16:33;;;;;;;12.63;8.95;;;0.60;99.90;;;;;;4899968;29;20079;-66
2021/12/09 02:18:59;;;;;;;17.95;8.63;;;0.60;99.90;;;;;;4902555;29;20104;-66
2021/12/09 02:21:32;;;;;;;14.45;8.48;;;0.60;99.90;;;;;;4898664;29;20103;-66
2021/12/09 02:24:01;;;;;;;12.93;8.40;;;0.60;99.90;;;;;;4881845;29;20056;-66
2021/12/09 02:26:33;;;;;;;13.07;9.02;;;0.60;99.90;;;;;;4879390;29;20398;-65
2021/12/09 02:29:00;;;;;;;16.98;8.85;;;0.60;99.90;;;;;;4897943;29;20049;-66
2021/12/09 02:31:28;;;;;;;16.42;9.32;;;0.60;99.90;;;;;;4899016;29;20089;-66
2021/12/09 02:33:55;;;;;;;18.08;9.27;;;0.50;99.90;;;;;;4913652;29;20056;-66
2021/12/09 02:36:21;;;;;;;14.52;9.02;;;0.50;99.90;;;;;;4917402;29;20059;-67
2021/12/09 02:38:49;;;;;;;16.52;9.38;;;0.50;99.90;;;;;;4909531;29;20057;-65
2021/12/09 02:41:19;;;;;;;21.30;9.15;;;0.50;99.90;;;;;;4915624;29;20446;-67
2021/12/09 02:43:48;;;;;;;18.20;11.13;;;0.50;99.90;;;;;;4915764;29;20048;-66
2021/12/09 02:46:16;;;;;;;17.48;10.05;;;0.50;99.90;;;;;;4917579;29;20060;-66
2021/12/09 02:48:42;;;;;;;19.52;9.73;;;0.40;99.90;;;;;;4912693;29;20424;-66
2021/12/09 02:51:07;;;;;;;20.63;9.82;;;0.40;99.90;;;;;;4908095;29;20063;-66
2021/12/09 02:53:34;;;;;;;17.42;9.18;;;0.40;99.90;;;;;;4900434;29;20071;-67
2021/12/09 02:56:00;;;;;;;17.05;9.32;;;0.40;99.90;;;;;;4899338;29;20055;-66
2021/12/09 02:58:26;;;;;;;18.63;9.35;;;0.40;99.90;;;;;;4899053;29;20052;-66
2021/12/09 03:00:53;;;;;;;14.68;8.80;;;0.40;99.90;;;;;;4893401;29;20057;-66
2021/12/09 03:03:19;;;;;;;16.15;9.63;;;0.40;99.90;;;;;;4897048;29;20056;-66
2021/12/09 03:05:46;;;;;;;17.58;9.07;;;0.40;99.90;;;;;;4887041;29;20079;-67
2021/12/09 03:08:18;;;;;;;17.27;10.30;;;0.40;99.90;;;;;;4916729;29;20118;-66
2021/12/09 03:10:44;;;;;;;18.42;10.05;;;0.30;99.90;;;;;;4916043;29;20123;-66
2021/12/09 03:13:10;;;;;;;17.15;9.20;;;0.30;99.90;;;;;;4900025;29;20184;-66
2021/12/09 03:15:36;;;;;;;15.95;10.15;;;0.30;99.90;;;;;;4882473;29;20064;-67
2021/12/09 03:18:02;;;;;;;15.73;9.13;;;0.30;99.90;;;;;;4912033;29;20048;-65
2021/12/09 03:20:28;;;;;;;15.68;10.10;;;0.30;99.90;;;;;;4916627;29;20489;-67
2021/12/09 03:22:54;;;;;;;18.15;9.60;;;0.30;99.90;;;;;;4915501;29;20175;-67
2021/12/09 03:25:20;;;;;;;16.27;9.98;;;0.30;99.90;;;;;;4915902;29;20060;-66
2021/12/09 03:27:47;;;;;;;17.67;10.35;;;0.30;99.90;;;;;;4916204;29;20067;-67
2021/12/09 03:30:15;;;;;;;16.90;10.40;;;0.20;99.90;;;;;;4916465;29;20159;-66
2021/12/09 03:32:41;;;;;;;21.20;10.82;;;0.20;99.90;;;;;;4893519;29;20060;-66
2021/12/09 03:35:09;;;;;;;19.50;10.38;;;0.20;99.90;;;;;;4897939;29;20110;-65
2021/12/09 03:37:35;;;;;;;17.60;10.50;;;0.20;99.90;;;;;;4916198;29;20135;-66
2021/12/09 03:40:00;;;;;;;18.27;10.18;;;0.20;99.90;;;;;;4899469;29;20123;-67
2021/12/09 03:42:28;;;;;;;17.95;10.90;;;0.20;99.90;;;;;;4916366;29;20151;-66
2021/12/09 03:44:56;;;;;;;20.92;10.82;;;0.20;99.90;;;;;;4899197;29;20052;-66
2021/12/09 03:47:25;;;;;;;18.10;11.43;;;0.30;99.90;;;;;;4913229;29;20409;-66
2021/12/09 03:49:51;;;;;;;17.38;10.13;;;0.30;99.90;;;;;;4914754;29;20493;-67
2021/12/09 03:52:17;;;;;;;19.38;11.05;;;0.30;99.90;;;;;;4914679;29;20056;-66
2021/12/09 03:54:44;;;;;;;21.52;10.38;;;0.40;99.90;;;;;;4898903;29;20044;-67
2021/12/09 03:57:11;;;;;;;19.65;10.40;;;0.20;99.90;;;;;;4899445;29;21494;-66
2021/12/09 03:59:38;;;;;;;18.88;11.43;;;0.20;99.90;;;;;;4912863;29;20095;-66
2021/12/09 04:02:04;;;;;;;17.30;11.10;;;0.30;99.90;;;;;;4917408;29;20056;-66
2021/12/09 04:04:30;;;;;;;17.75;10.52;;;0.20;99.90;;;;;;4920376;29;20056;-66
2021/12/09 04:06:56;;;;;;;17.30;10.48;;;0.20;99.90;;;;;;4918684;29;20485;-67
2021/12/09 04:09:23;;;;;;;21.35;10.65;;;0.20;99.90;;;;;;4894802;29;20049;-66
2021/12/09 04:11:50;;;;;;;21.42;12.00;;;0.10;99.90;;;;;;4910568;29;20056;-67
2021/12/09 04:14:16;;;;;;;21.95;11.35;;;0.10;99.90;;;;;;4902593;29;20165;-67
2021/12/09 04:16:43;;;;;;;18.98;11.63;;;0.10;99.90;;;;;;4914195;29;20056;-66
2021/12/09 04:19:11;;;;;;;19.10;11.00;;;0.10;99.90;;;;;;4916310;29;20056;-65
2021/12/09 04:21:39;;;;;;;24.52;12.05;;;0.10;99.90;;;;;;4902996;29;20437;-66
2021/12/09 04:24:07;;;;;;;21.23;11.93;;;0.10;99.90;;;;;;4919823;29;20493;-67
2021/12/09 04:26:40;;;;;;;19.88;10.77;;;0.00;99.90;;;;;;4918601;29;20497;-66
2021/12/09 04:29:07;;;;;;;18.67;11.10;;;0.10;99.90;;;;;;4919467;29;20055;-66
2021/12/09 04:31:33;;;;;;;17.05;11.35;;;0.00;99.90;;;;;;4918151;29;20593;-66
2021/12/09 04:33:59;;;;;;;19.52;10.52;;;0.10;99.90;;;;;;4887392;29;20051;-67
2021/12/09 04:36:25;;;;;;;21.08;11.60;;;0.00;99.90;;;;;;4903198;29;20099;-66
2021/12/09 04:38:52;;;;;;;22.27;11.77;;;0.00;99.90;;;;;;4908925;29;20135;-66
2021/12/09 04:41:18;;;;;;;19.63;11.40;;;0.10;99.90;;;;;;4883275;29;20546;-67
2021/12/09 04:43:44;;;;;;;19.00;12.07;;;0.10;99.90;;;;;;4883438;29;20063;-66
2021/12/09 04:46:11;;;;;;;18.55;10.70;;;0.10;99.90;;;;;;4900513;29;20056;-66
2021/12/09 04:48:37;;;;;;;24.75;11.95;;;0.10;99.90;;;;;;4900711;29;20056;-66
2021/12/09 04:51:04;;;;;;;24.45;11.68;;;0.10;99.90;;;;;;4911259;29;20135;-66
2021/12/09 04:53:30;;;;;;;20.70;11.45;;;0.20;99.90;;;;;;4902522;29;20397;-67
2021/12/09 04:55:55;;;;;;;26.88;12.93;;;0.20;99.90;;;;;;4918835;29;20111;-66
2021/12/09 04:58:23;;;;;;;20.88;11.60;;;0.20;99.90;;;;;;4905108;29;20057;-66
2021/12/09 05:00:49;;;;;;;22.67;12.15;;;0.20;99.90;;;;;;4900021;29;20053;-67
2021/12/09 05:03:16;;;;;;;20.80;12.82;;;0.20;99.90;;;;;;4909697;29;20052;-66
2021/12/09 05:05:45;;;;;;;20.75;11.77;;;0.20;99.90;;;;;;4918914;29;20048;-66
2021/12/09 05:08:18;;;;;;;22.33;12.13;;;0.20;99.90;;;;;;4911071;29;20052;-65
2021/12/09 05:11:04;;;;;;;18.23;11.20;;;0.10;99.90;;;;;;4889197;29;20051;-67
2021/12/09 05:13:32;;;;;;;21.48;11.75;;;0.10;99.90;;;;;;4912907;29;20382;-66
2021/12/09 05:15:59;;;;;;;21.48;11.77;;;0.10;99.90;;;;;;4918849;29;20373;-66
2021/12/09 05:18:28;;;;;;;23.92;12.88;;;0.10;99.90;;;;;;4918742;29;20056;-65
2021/12/09 05:20:54;;;;;;;21.67;11.68;;;0.10;99.90;;;;;;4901851;29;20059;-65
2021/12/09 05:23:23;;;;;;;19.13;12.65;;;0.10;99.90;;;;;;4902173;29;20055;-66
2021/12/09 05:25:49;;;;;;;22.10;11.35;;;0.10;99.90;;;;;;4906726;29;20040;-66
2021/12/09 05:28:16;;;;;;;24.23;12.18;;;0.10;99.90;;;;;;4913930;29;20382;-66
2021/12/09 05:33:28;;;;;;;19.40;11.40;;;0.10;99.90;;;;;;4917384;29;20052;-66
2021/12/09 05:35:55;;;;;;;21.88;12.80;;;0.00;99.90;;;;;;4917826;29;20064;-66
2021/12/09 05:38:20;;;;;;;21.95;12.32;;;0.10;99.90;;;;;;4917578;29;20473;-67
2021/12/09 05:40:48;;;;;;;23.10;12.25;;;0.10;99.90;;;;;;4900268;29;20051;-66
2021/12/09 05:43:17;;;;;;;24.35;11.93;;;0.10;99.90;;;;;;4909577;29;20123;-66
2021/12/09 05:45:43;;;;;;;18.25;11.70;;;0.10;99.90;;;;;;4918363;29;20123;-67
2021/12/09 05:48:09;;;;;;;24.05;12.00;;;0.10;99.90;;;;;;4901428;29;20131;-66
2021/12/09 05:50:36;;;;;;;24.10;11.88;;;0.10;99.90;;;;;;4918116;29;20052;-66
2021/12/09 05:53:01;;;;;;;20.65;12.27;;;0.00;99.90;;;;;;4904860;29;20060;-66
2021/12/09 05:55:27;;;;;;;27.98;11.35;;;0.00;99.90;;;;;;4896922;29;20047;-66
2021/12/09 05:57:52;;;;;;;19.00;11.60;;;0.00;99.90;;;;;;4899375;29;20044;-66
2021/12/09 06:00:18;;;;;;;21.65;11.98;;;0.00;99.90;;;;;;4900713;29;20500;-66
2021/12/09 06:02:44;;;;;;;19.63;12.32;;;-0.10;99.90;;;;;;4913565;29;20044;-66
2021/12/09 06:05:10;;;;;;;24.55;11.57;;;0.00;99.90;;;;;;4913057;29;20054;-65
2021/12/09 06:07:35;;;;;;;21.20;11.85;;;-0.10;99.90;;;;;;4900582;29;20052;-66
2021/12/09 06:10:03;;;;;;;23.08;12.38;;;-0.10;99.90;;;;;;4917901;29;20463;-67
2021/12/09 06:12:29;;;;;;;21.25;12.00;;;-0.10;99.90;;;;;;4900662;29;20079;-66
2021/12/09 06:14:54;;;;;;;25.67;12.10;;;-0.10;99.90;;;;;;4898697;29;20461;-67
2021/12/09 06:17:20;;;;;;;19.45;11.48;;;-0.10;99.90;;;;;;4896611;29;20064;-65
2021/12/09 06:19:45;;;;;;;25.05;13.02;;;-0.10;99.90;;;;;;4899500;29;20189;-66
2021/12/09 06:22:11;;;;;;;28.70;15.50;;;-0.10;99.90;;;;;;4898680;29;20435;-66
2021/12/09 06:24:36;;;;;;;32.95;16.05;;;-0.10;99.90;;;;;;4897573;29;20059;-66
2021/12/09 06:27:03;;;;;;;34.15;17.10;;;-0.10;99.90;;;;;;4881840;29;20086;-66
2021/12/09 06:29:32;;;;;;;29.80;15.40;;;-0.10;99.90;;;;;;4900885;29;20052;-66
2021/12/09 06:31:58;;;;;;;25.92;12.35;;;-0.10;99.90;;;;;;4917415;29;20416;-67
2021/12/09 06:34:23;;;;;;;25.38;12.15;;;-0.10;99.90;;;;;;4900997;29;20144;-66
2021/12/09 06:36:49;;;;;;;26.02;12.13;;;-0.10;99.90;;;;;;4882003;29;20230;-66
2021/12/09 06:39:17;;;;;;;21.58;12.40;;;-0.20;99.90;;;;;;4866030;29;20079;-66
2021/12/09 06:41:43;;;;;;;19.58;11.38;;;-0.10;99.90;;;;;;4898291;29;20096;-65
2021/12/09 06:44:09;;;;;;;23.20;12.77;;;-0.10;99.90;;;;;;4898461;29;20040;-65
2021/12/09 06:46:34;;;;;;;22.98;11.88;;;-0.20;99.90;;;;;;4881487;29;20434;-67
2021/12/09 06:49:00;;;;;;;22.08;11.50;;;-0.20;99.90;;;;;;4897502;29;20060;-66
2021/12/09 06:51:26;;;;;;;16.75;10.63;;;-0.20;99.90;;;;;;4897204;29;20363;-66
2021/12/09 06:53:51;;;;;;;25.17;11.50;;;-0.20;99.90;;;;;;4881980;29;20095;-66
2021/12/09 06:56:17;;;;;;;23.13;12.02;;;-0.20;99.90;;;;;;4895655;29;20124;-66
2021/12/09 06:58:42;;;;;;;22.55;11.98;;;-0.20;99.90;;;;;;4901935;29;20092;-65
2021/12/09 07:01:08;;;;;;;28.30;12.93;;;-0.20;99.90;;;;;;4898231;29;20065;-67
2021/12/09 07:03:38;;;;;;;19.05;12.68;;;-0.20;99.90;;;;;;4898405;29;20051;-65
2021/12/09 07:06:06;;;;;;;25.63;11.98;;;-0.20;99.90;;;;;;4896718;29;20047;-66
2021/12/09 07:08:35;;;;;;;30.92;12.27;;;-0.30;99.90;;;;;;4891647;29;20486;-66
2021/12/09 07:11:02;;;;;;;26.83;11.90;;;-0.20;99.90;;;;;;4880278;29;20056;-67
2021/12/09 07:13:30;;;;;;;19.40;11.73;;;-0.20;99.90;;;;;;4881562;29;20060;-66
2021/12/09 07:15:57;;;;;;;26.00;11.18;;;-0.30;99.90;;;;;;4890232;29;20136;-66
2021/12/09 07:18:25;;;;;;;24.02;12.85;;;-0.20;99.90;;;;;;4903544;29;20173;-67
2021/12/09 07:20:52;;;;;;;22.67;11.63;;;-0.30;99.90;;;;;;4896066;29;20120;-65
2021/12/09 07:23:17;;;;;;;19.67;11.45;;;-0.30;99.90;;;;;;4897482;29;21885;-67
2021/12/09 07:25:43;;;;;;;26.02;12.23;;;-0.30;99.90;;;;;;4905571;29;20052;-66
2021/12/09 07:28:08;;;;;;;28.73;12.90;;;-0.30;99.90;;;;;;4903050;29;20520;-66
2021/12/09 07:30:34;;;;;;;22.10;12.32;;;-0.30;99.90;;;;;;4879275;29;20052;-66
2021/12/09 07:33:00;;;;;;;24.30;11.82;;;-0.30;99.90;;;;;;4914163;29;20100;-66
2021/12/09 07:35:30;;;;;;;21.83;11.73;;;-0.30;99.90;;;;;;4896398;29;20064;-67
2021/12/09 07:38:00;;;;;;;22.55;12.93;;;-0.30;99.90;;;;;;4915382;29;20108;-67
2021/12/09 07:40:26;;;;;;;26.35;12.20;;;-0.30;99.90;;;;;;4912937;29;20498;-66
2021/12/09 07:42:51;;;;;;;22.33;12.13;;;-0.30;99.90;;;;;;4916479;29;20098;-65
2021/12/09 07:45:18;;;;;;;22.02;12.15;;;-0.30;99.90;;;;;;4905326;29;20144;-66
2021/12/09 07:47:45;;;;;;;26.20;11.50;;;-0.30;99.90;;;;;;4898876;29;20056;-67
2021/12/09 07:50:14;;;;;;;23.77;12.65;;;-0.30;99.90;;;;;;4885925;29;20080;-66
2021/12/09 07:52:45;;;;;;;24.40;12.50;;;-0.30;99.90;;;;;;4913448;29;20119;-66
2021/12/09 07:55:11;;;;;;;23.52;11.73;;;-0.30;99.90;;;;;;4901910;29;20108;-65
2021/12/09 07:57:38;;;;;;;23.92;11.98;;;-0.30;99.90;;;;;;4914879;29;20104;-67
2021/12/09 08:00:15;;;;;;;22.85;11.93;;;-0.30;99.90;;;;;;4903534;29;20068;-67
2021/12/09 08:02:43;;;;;;;25.17;11.48;;;-0.30;99.90;;;;;;4898468;29;20057;-67
2021/12/09 08:05:10;;;;;;;23.45;12.05;;;-0.20;99.90;;;;;;4885249;29;20052;-67
2021/12/09 08:07:36;;;;;;;22.88;11.73;;;-0.20;99.90;;;;;;4878047;29;20449;-66
2021/12/09 08:10:02;;;;;;;28.13;12.93;;;-0.20;99.90;;;;;;4896786;29;20060;-67
2021/12/09 08:12:28;;;;;;;23.15;12.25;;;-0.20;99.90;;;;;;4899180;29;20056;-66
2021/12/09 08:14:53;;;;;;;29.75;12.48;;;-0.20;99.90;;;;;;4886827;29;20109;-67
2021/12/09 08:17:44;;;;;;;23.10;12.52;;;-0.20;99.90;;;;;;4910250;29;20059;-66
2021/12/09 08:20:18;;;;;;;27.10;11.93;;;-0.20;99.90;;;;;;4891140;29;20472;-67
2021/12/09 08:22:45;;;;;;;27.48;11.90;;;-0.20;99.90;;;;;;4896611;29;20060;-66
2021/12/09 08:25:13;;;;;;;24.13;12.05;;;-0.10;99.90;;;;;;4894965;29;20161;-66
2021/12/09 08:27:42;;;;;;;21.60;11.32;;;-0.10;99.90;;;;;;4894604;29;20063;-67
2021/12/09 08:30:13;;;;;;;26.92;10.73;;;-0.10;99.90;;;;;;4908741;29;20096;-66
2021/12/09 08:32:39;;;;;;;24.15;11.23;;;-0.10;99.90;;;;;;4912705;29;20052;-65
2021/12/09 08:35:05;;;;;;;26.95;12.27;;;0.00;99.90;;;;;;4892529;29;20417;-65
2021/12/09 08:37:31;;;;;;;23.05;12.75;;;0.00;99.90;;;;;;4891395;29;20131;-66
2021/12/09 08:39:57;;;;;;;20.70;11.50;;;0.10;99.90;;;;;;4900717;29;20546;-66
2021/12/09 08:42:22;;;;;;;31.75;13.48;;;0.10;99.90;;;;;;4898033;29;20505;-67
2021/12/09 08:44:48;;;;;;;25.05;12.23;;;0.10;99.90;;;;;;4891172;29;20059;-65
2021/12/09 08:47:14;;;;;;;24.23;12.13;;;0.20;99.90;;;;;;4917450;29;20124;-65
2021/12/09 08:49:39;;;;;;;24.30;12.55;;;0.20;99.90;;;;;;4910875;29;20055;-67
2021/12/09 08:52:05;;;;;;;22.00;12.23;;;0.30;99.90;;;;;;4919184;29;20052;-66
2021/12/09 08:54:31;;;;;;;27.05;12.35;;;0.30;99.90;;;;;;4880025;29;20498;-65
2021/12/09 08:56:58;;;;;;;23.48;12.00;;;0.30;99.90;;;;;;4878800;29;20534;-66
2021/12/09 08:59:25;;;;;;;29.13;12.32;;;0.30;99.90;;;;;;4911382;29;20052;-66
2021/12/09 09:01:51;;;;;;;29.95;12.02;;;0.40;99.90;;;;;;4903278;29;20063;-67
2021/12/09 09:04:17;;;;;;;22.55;11.50;;;0.40;99.90;;;;;;4897541;29;20516;-67
2021/12/09 09:06:54;;;;;;;21.77;12.02;;;0.50;99.90;;;;;;4901914;29;20135;-67
2021/12/09 09:09:21;;;;;;;26.60;11.90;;;0.50;99.90;;;;;;4913769;29;20430;-66
2021/12/09 09:11:47;;;;;;;25.60;12.35;;;0.60;99.90;;;;;;4918861;29;20250;-65
2021/12/09 09:14:12;;;;;;;22.10;12.35;;;0.60;99.90;;;;;;4892436;29;20405;-66
2021/12/09 09:16:38;;;;;;;20.75;12.10;;;0.70;99.90;;;;;;4879777;29;20053;-65
2021/12/09 09:19:05;;;;;;;27.15;12.35;;;0.70;99.90;;;;;;4883168;29;20052;-67
2021/12/09 09:21:31;;;;;;;24.20;11.30;;;0.80;99.90;;;;;;4898883;29;20066;-66
2021/12/09 09:23:58;;;;;;;25.92;11.57;;;0.80;99.90;;;;;;4901291;29;20048;-66
2021/12/09 09:26:26;;;;;;;26.85;11.35;;;0.80;99.90;;;;;;4901735;29;20055;-66
2021/12/09 09:28:51;;;;;;;19.02;10.85;;;0.90;99.90;;;;;;4892577;29;20052;-67
2021/12/09 09:31:18;;;;;;;19.13;10.85;;;0.90;99.90;;;;;;4919018;29;20421;-67
2021/12/09 09:33:44;;;;;;;23.63;11.27;;;1.00;99.90;;;;;;4898787;29;20172;-67
2021/12/09 09:36:10;;;;;;;23.65;11.27;;;1.00;99.90;;;;;;4917516;29;20526;-67
2021/12/09 09:38:36;;;;;;;27.52;11.63;;;1.10;99.90;;;;;;4897550;29;20184;-67
2021/12/09 09:41:09;;;;;;;21.65;11.38;;;1.10;99.90;;;;;;4917430;29;20048;-66
2021/12/09 09:43:57;;;;;;;19.70;11.32;;;1.20;99.90;;;;;;4910614;29;20048;-67
2021/12/09 09:46:29;;;;;;;23.65;10.73;;;1.20;99.90;;;;;;4901587;29;20052;-67
2021/12/09 09:48:57;;;;;;;22.85;10.23;;;1.20;99.90;;;;;;4894906;29;20071;-66
2021/12/09 09:51:25;;;;;;;17.88;10.90;;;1.30;99.90;;;;;;4912567;29;20079;-66
2021/12/09 09:53:51;;;;;;;18.80;10.90;;;1.30;99.90;;;;;;4893083;29;20049;-67
2021/12/09 09:56:19;;;;;;;23.75;10.52;;;1.50;99.90;;;;;;4880556;29;20064;-66
2021/12/09 09:58:57;;;;;;;18.00;10.57;;;1.50;99.90;;;;;;4883499;29;20515;-67
2021/12/09 10:01:24;;;;;;;21.33;10.82;;;1.50;99.90;;;;;;4901043;29;20060;-67
2021/12/09 10:03:58;;;;;;;14.50;9.73;;;1.40;99.90;;;;;;4896389;29;20091;-67
2021/12/09 10:06:24;;;;;;;22.17;10.43;;;1.60;99.90;;;;;;4901404;29;20152;-67
2021/12/09 10:08:49;;;;;;;20.80;11.10;;;1.60;99.90;;;;;;4898310;29;20111;-67
2021/12/09 10:11:15;;;;;;;16.45;10.13;;;1.60;99.90;;;;;;4893405;29;20056;-67
2021/12/09 10:13:43;;;;;;;18.88;9.27;;;1.70;99.90;;;;;;4889362;29;20403;-67
2021/12/09 10:16:18;;;;;;;17.40;9.82;;;1.70;99.90;;;;;;4917307;29;20052;-67
2021/12/09 10:18:46;;;;;;;23.52;10.82;;;1.80;99.90;;;;;;4890479;29;20068;-68
2021/12/09 10:21:19;;;;;;;18.70;11.18;;;1.80;99.90;;;;;;4879773;29;20049;-66
2021/12/09 10:23:48;;;;;;;22.50;10.68;;;1.90;99.90;;;;;;4877913;29;20057;-67
2021/12/09 10:26:22;;;;;;;21.52;11.75;;;2.00;99.90;;;;;;4900854;29;20052;-65
2021/12/09 10:28:52;;;;;;;18.92;9.55;;;2.10;99.90;;;;;;4897847;29;20067;-66
2021/12/09 10:31:25;;;;;;;20.75;10.20;;;2.10;99.90;;;;;;4881496;29;20080;-67
2021/12/09 10:34:02;;;;;;;16.13;8.75;;;2.20;99.90;;;;;;4880394;29;20056;-66
2021/12/09 10:36:53;;;;;;;24.45;13.90;;;2.20;99.90;;;;;;4881371;29;20573;-65
2021/12/09 10:39:21;;;;;;;15.98;9.25;;;2.30;99.90;;;;;;4885270;29;20053;-66
2021/12/09 10:41:48;;;;;;;17.13;9.57;;;2.40;99.90;;;;;;4881267;29;20057;-67
2021/12/09 10:44:13;;;;;;;20.52;13.27;;;2.40;99.90;;;;;;4898406;29;20113;-67
2021/12/09 10:47:04;;;;;;;21.17;13.52;;;2.50;99.90;;;;;;4898656;29;20052;-68
2021/12/09 10:49:41;;;;;;;13.93;8.05;;;;;;;;;;4880288;29;20081;-67
2021/12/09 10:52:24;;;;;;;10.68;8.27;;;2.50;99.90;;;;;;4917164;29;20079;-68
2021/12/09 10:54:50;;;;;;;13.13;8.93;;;2.60;99.90;;;;;;4900496;29;20048;-67
2021/12/09 10:57:31;;;;;;;15.40;9.02;;;2.70;99.90;;;;;;4911005;29;20108;-67
2021/12/09 11:00:06;;;;;;;17.45;9.00;;;2.70;99.90;;;;;;4898122;29;20561;-66
2021/12/09 11:02:32;;;;;;;28.02;17.50;;;2.70;99.90;;;;;;4897598;29;20060;-68
2021/12/09 11:05:04;;;;;;;22.77;14.18;;;2.70;99.90;;;;;;4896762;29;20060;-66
2021/12/09 11:07:31;;;;;;;19.67;11.20;;;2.70;99.90;;;;;;4892386;29;20123;-67
2021/12/09 11:10:15;;;;;;;22.80;11.52;;;2.80;99.90;;;;;;4904625;29;20048;-66
2021/12/09 11:12:52;;;;;;;20.70;10.98;;;2.80;99.90;;;;;;4913003;29;20064;-65
2021/12/09 11:15:19;;;;;;;18.67;10.00;;;2.90;99.90;;;;;;4896511;29;20354;-67
2021/12/09 11:17:47;;;;;;;15.75;9.82;;;2.90;99.90;;;;;;4898289;29;20104;-68
2021/12/09 11:20:14;;;;;;;16.58;9.57;;;2.90;99.90;;;;;;4897224;29;20473;-66
2021/12/09 11:22:43;;;;;;;15.68;10.02;;;2.90;99.90;;;;;;4889451;29;20048;-67
2021/12/09 11:25:33;;;;;;;16.98;9.88;;;3.00;99.90;;;;;;4896825;29;20532;-67
2021/12/09 11:28:12;;;;;;;17.50;10.05;;;3.00;99.90;;;;;;4897381;29;20098;-66
2021/12/09 11:31:05;;;;;;;16.85;9.25;;;3.00;99.90;;;;;;4915126;29;20059;-67
2021/12/09 11:33:34;;;;;;;;;;;3.00;99.90;;;;;;4901663;29;20071;-66
2021/12/09 11:36:01;;;;;;;15.82;9.60;;;3.00;99.90;;;;;;4897515;29;20391;-65
2021/12/09 11:38:54;;;;;;;19.42;9.30;;;3.10;99.90;;;;;;4886891;29;20044;-66
2021/12/09 11:41:36;;;;;;;15.25;9.98;;;3.10;99.90;;;;;;4898914;29;20063;-66
2021/12/09 11:44:02;;;;;;;17.10;9.88;;;3.10;99.90;;;;;;4900158;29;20136;-67
2021/12/09 11:46:27;;;;;;;20.25;12.52;;;3.10;99.90;;;;;;4916461;29;20142;-67
2021/12/09 11:48:53;;;;;;;21.38;11.18;;;3.10;99.90;;;;;;4880971;29;20060;-66
2021/12/09 11:51:19;;;;;;;17.48;11.65;;;3.10;99.90;;;;;;4897866;29;20458;-66
2021/12/09 11:53:45;;;;;;;20.10;10.75;;;3.10;99.90;;;;;;4886057;29;20040;-66
2021/12/09 11:56:27;;;;;;;16.73;10.85;;;3.20;99.90;;;;;;4914681;29;20060;-66
2021/12/09 12:07:59;;;;;;;20.33;11.63;;;3.00;99.90;;;;;;4897455;29;20052;-66
2021/12/09 12:13:47;;;;;;;18.05;10.18;;;3.20;99.90;;;;;;4897760;29;20045;-66
2021/12/09 12:23:12;;;;;;;15.05;9.32;;;3.20;99.90;;;;;;4887762;29;20068;-67
2021/12/09 12:25:56;;;;;;;21.23;11.45;;;3.30;99.90;;;;;;4885850;29;20060;-67
2021/12/09 12:28:47;;;;;;;20.27;11.38;;;3.30;99.90;;;;;;4901149;29;20413;-68
2021/12/09 12:35:05;;;;;;;20.40;11.93;;;3.30;99.90;;;;;;4919884;29;20052;-67
2021/12/09 12:40:20;;;;;;;24.63;14.60;;;3.40;99.90;;;;;;4919342;29;20059;-67
2021/12/09 12:42:53;;;;;;;32.20;18.10;;;3.40;99.90;;;;;;4905877;29;20052;-66
2021/12/09 12:48:16;;;;;;;23.02;13.90;;;3.30;99.90;;;;;;4884094;29;20052;-67
2021/12/09 12:51:13;;;;;;;21.85;12.55;;;3.30;99.90;;;;;;4899105;29;20094;-66
2021/12/09 12:53:45;;;;;;;21.70;12.68;;;3.30;99.90;;;;;;4900634;29;20461;-67
2021/12/09 12:56:20;;;;;;;22.38;13.25;;;3.30;99.90;;;;;;4899969;29;20152;-68
2021/12/09 12:59:16;;;;;;;22.58;12.55;;;3.40;99.90;;;;;;4883576;29;20056;-66
2021/12/09 13:01:47;;;;;;;24.33;14.20;;;3.30;99.90;;;;;;4865089;29;20106;-66
2021/12/09 13:05:28;;;;;;;23.17;13.70;;;3.30;99.90;;;;;;4881762;29;20144;-67
2021/12/09 13:10:44;;;;;;;20.83;11.90;;;3.40;99.90;;;;;;4886048;29;20093;-67
2021/12/09 13:13:41;;;;;;;22.90;14.02;;;3.40;99.90;;;;;;4900615;29;20063;-67
2021/12/09 13:21:35;;;;;;;24.85;13.05;;;3.50;99.90;;;;;;4900207;29;20059;-67
2021/12/09 13:24:28;;;;;;;24.67;14.10;;;3.50;99.90;;;;;;4900346;29;20080;-67
2021/12/09 13:27:16;;;;;;;22.60;13.63;;;3.50;99.90;;;;;;4899372;29;20060;-67